Macungie, Pennsylvania
Current Conditions -  °F | °C
As of 6:15 AM on Thursday 23 Oct 2014 (Local Time) from KXLL Reporting Station
Overcast Overcast  
Wind Chill: 11°   Ceiling: 3800
Heat Index: 11°   Visibility: 10mi
Dew Point:   Wind: 9mph
Humidity: 71%   Direction: 340°NNW
Pressure: 29.81"   Gusts: NA
Location:  40.52°N, 75.56°W
Report Text: KXLL 231015Z AUTO 34008KT 10SM SCT024 OVC038 11/06 A2981 RMK AO2
Loading
Personal Weather Stations






























Interactive Weather Map
Tropical Storm Tracking
New forecast layout! Learn more

10-Day Weather Forecast

Advertisements
Track Severe Weather on mobile